Terminal Aerodrome Forecast
Issued by NWS Louisville, KY

Home | Current Version | Previous Version | Text Only | Print | Product List | Glossary On
Versions: 1 2 3 4 5 6 7 8 9 10 11 12 13 14 15 16 17 18 19 20 21 22 23 24
000
FTUS43 KLMK 270500
TAFLEX
TAF
KLEX 270520Z 2706/2806 18007KT P6SM FEW006 SCT015
     FM270800 20007KT 4SM BR SCT006 BKN015
     FM271500 21010KT P6SM SCT015 SCT250
     FM272100 22011G18KT P6SM VCTS BKN050CB
     FM280200 21005KT P6SM BKN100=

USA.gov is the U.S. government's official web portal to all federal, state and local government web resources and services.